»·PEaware :: N698SP KBFL-KMHV

N698SP :: KBFL-KMHV

FLIGHT INFORMATION

Flight Status: Arrived
Operator: Privately registered:
United States
More flights under this callsign
Pilot: Dominik G. (31997)
Aircraft: CESSNA 172 SKYHAWK
(C172)
More flights by this aircraft type
Origin: KBFL Meadows
United States
Destination: KMHV Mojave
United States
More flights between these airports :: More routes between these airports
Route:
File this flight plan on PilotEdge
Remarks:
Altitude:
(Current/Filed)
5,500ft
Speed:
(Current/Filed)
104kts
Departed: 06-Dec-20 04:56 PM
Arrived: 06-Dec-20 05:29 PM
Distance/Time
Traveled:
50nm/0:32
Distance/Time
To Go:
Arrived

Flight Plot

Page will automatically refresh every two minutes.


Map Options




Map Legend


Flown Route
Filed Route
Departure Airport
Arrival Airport
Navaid (VOR, NDB)
Fix

Horizontal Profiles

Position Reports

Time Latitude Longitude Heading Altitude Ground
Speed
06-Dec-20 16:36 35.435703 -119.052044 180 511ft 0kts
06-Dec-20 16:37 35.435703 -119.052044 180 511ft 0kts
06-Dec-20 16:37 35.435703 -119.052044 180 511ft 0kts
06-Dec-20 16:39 35.435703 -119.052044 180 511ft 0kts
06-Dec-20 16:39 35.435703 -119.052044 180 511ft 0kts
06-Dec-20 16:41 35.435703 -119.052044 180 511ft 0kts
06-Dec-20 16:41 35.435703 -119.052044 180 511ft 0kts
06-Dec-20 16:43 35.435693 -119.052044 180 511ft 0kts
06-Dec-20 16:43 35.435693 -119.052044 180 511ft 0kts
06-Dec-20 16:45 35.435693 -119.052044 180 511ft 0kts
06-Dec-20 16:46 35.435693 -119.052044 180 511ft 0kts
06-Dec-20 16:46 35.435693 -119.052044 180 511ft 0kts
06-Dec-20 16:48 35.435265 -119.053613 224 502ft 10kts
06-Dec-20 16:48 35.433592 -119.053608 135 495ft 8kts
06-Dec-20 16:50 35.430174 -119.049448 136 494ft 20kts
06-Dec-20 16:50 35.426393 -119.044915 140 486ft 17kts
06-Dec-20 16:51 35.425757 -119.045042 227 483ft 0kts
06-Dec-20 16:52 35.425757 -119.045042 227 483ft 0kts
06-Dec-20 16:53 35.425757 -119.045042 227 483ft 0kts
06-Dec-20 16:54 35.425755 -119.045045 227 483ft 0kts
06-Dec-20 16:55 35.430687 -119.052327 317 754ft 66kts
06-Dec-20 16:56 35.445615 -119.067081 324 1811ft 71kts
06-Dec-20 16:57 35.452861 -119.049140 129 2762ft 93kts
06-Dec-20 16:58 35.433141 -119.027010 144 3672ft 98kts
06-Dec-20 16:59 35.410266 -119.008447 137 4543ft 99kts
06-Dec-20 17:00 35.390889 -118.982885 134 5342ft 108kts
06-Dec-20 17:01 35.367841 -118.954090 134 5529ft 119kts
06-Dec-20 17:02 35.349483 -118.921504 120 5526ft 113kts
06-Dec-20 17:03 35.333924 -118.887879 116 5528ft 113kts
06-Dec-20 17:04 35.319215 -118.853884 116 5532ft 113kts
06-Dec-20 17:05 35.304535 -118.819736 116 5537ft 113kts
06-Dec-20 17:06 35.289903 -118.785478 116 5543ft 113kts
06-Dec-20 17:07 35.275280 -118.751205 115 5549ft 113kts
06-Dec-20 17:08 35.262214 -118.715909 111 5556ft 113kts
06-Dec-20 17:09 35.249398 -118.680734 111 5564ft 113kts
06-Dec-20 17:10 35.236518 -118.645432 111 5572ft 113kts
06-Dec-20 17:11 35.223680 -118.610294 111 5605ft 114kts
06-Dec-20 17:12 35.208750 -118.572081 114 6029ft 130kts
06-Dec-20 17:13 35.190407 -118.533655 130 6466ft 130kts
06-Dec-20 17:14 35.165521 -118.498243 130 6555ft 132kts
06-Dec-20 17:15 35.147220 -118.466349 122 6541ft 103kts
06-Dec-20 17:16 35.132278 -118.437769 115 6555ft 104kts
06-Dec-20 17:17 35.118865 -118.404220 113 6580ft 113kts
06-Dec-20 17:18 35.105532 -118.369030 108 6593ft 111kts
06-Dec-20 17:19 35.094629 -118.334406 108 6597ft 107kts
06-Dec-20 17:20 35.089261 -118.295656 93 6135ft 119kts
06-Dec-20 17:21 35.096585 -118.261233 56 5977ft 100kts
06-Dec-20 17:22 35.110828 -118.231500 56 5529ft 99kts
06-Dec-20 17:23 35.127547 -118.206438 354 4705ft 90kts
06-Dec-20 17:24 35.117315 -118.211135 160 4006ft 85kts
06-Dec-20 17:25 35.097709 -118.194073 140 3730ft 85kts
06-Dec-20 17:26 35.082885 -118.176608 141 3325ft 66kts
06-Dec-20 17:27 35.069924 -118.161310 139 2880ft 63kts
06-Dec-20 17:28 35.062076 -118.151894 137 2767ft 19kts
06-Dec-20 17:29 35.058330 -118.148777 236 2751ft 6kts
06-Dec-20 17:30 35.058311 -118.148811 236 2751ft 0kts
06-Dec-20 17:31 35.057121 -118.148744 161 2747ft 0kts

Navigation Log

Ident Type
Flight plan parsing failed, navigation log unavailable